ADDS METAR Data INFO
IDs: Format: Raw Decoded Include TAF

Data at: 0345 UTC 23 Nov 2017

METAR for:LFQA (Reims/Prunay Aprt, --, FR)
Text:LFQA 230330Z AUTO 18009KT 140V260 CAVOK 11/05 Q1002
Temperature: 11.0°C ( 52°F)
Dewpoint: 5.0°C ( 41°F) [RH = 66%]
Pressure (altimeter):29.59 inches Hg (1002.0 mb)
Winds:from the S (180 degrees) at 10 MPH (9 knots; 4.6 m/s)
Visibility:6 or more sm (10+ km)
Ceiling:ceiling and visibility are OK
Clouds:unknown

TAF for:LFQA (Reims/Prunay Aprt, --, FR)
Text:No data found